createdAt,value
2019-01-02T00:00:37.074Z,5.09
2019-01-02T00:01:37.055Z,5.40
2019-01-02T00:02:37.048Z,5.00
2019-01-02T00:03:37.035Z,4.90
2019-01-02T00:04:37.033Z,5.40
2019-01-02T00:05:37.017Z,5.19
2019-01-02T00:06:37.002Z,5.00
2019-01-02T00:07:36.992Z,5.80
2019-01-02T00:08:36.986Z,5.00
2019-01-02T00:09:36.969Z,5.30
2019-01-02T00:10:36.957Z,4.90
2019-01-02T00:11:36.952Z,5.30
2019-01-02T00:12:36.939Z,4.69
2019-01-02T00:13:36.926Z,4.80
2019-01-02T00:14:36.920Z,4.90
2019-01-02T00:15:36.905Z,4.69
2019-01-02T00:16:36.894Z,4.69
2019-01-02T00:17:36.881Z,5.50
2019-01-02T00:18:36.872Z,4.59
2019-01-02T00:19:36.861Z,4.69
2019-01-02T00:20:36.850Z,5.09
2019-01-02T00:21:36.840Z,4.90
2019-01-02T00:22:36.830Z,4.90
2019-01-02T00:23:36.821Z,5.09
2019-01-02T00:24:36.806Z,5.30
2019-01-02T00:25:36.795Z,5.09
2019-01-02T00:26:36.783Z,4.90
2019-01-02T00:27:36.775Z,5.09
2019-01-02T00:28:36.763Z,4.30
2019-01-02T00:29:36.755Z,4.90
2019-01-02T00:30:36.740Z,4.90
2019-01-02T00:31:36.729Z,5.00
2019-01-02T00:32:36.718Z,5.00
2019-01-02T00:33:36.711Z,5.19
2019-01-02T00:34:36.700Z,4.80
2019-01-02T00:35:36.689Z,4.69
2019-01-02T00:36:36.677Z,4.59
2019-01-02T00:37:36.665Z,5.00
2019-01-02T00:38:36.652Z,4.09
2019-01-02T00:39:36.649Z,5.19
2019-01-02T00:40:36.633Z,4.59
2019-01-02T00:41:36.623Z,4.59
2019-01-02T00:42:36.611Z,4.59
2019-01-02T00:43:36.599Z,4.50
2019-01-02T00:44:36.592Z,4.19
2019-01-02T00:45:36.576Z,4.19
2019-01-02T00:46:36.570Z,4.69
2019-01-02T00:47:36.557Z,4.69
2019-01-02T00:48:36.548Z,4.80
2019-01-02T00:49:36.539Z,5.19
2019-01-02T00:50:36.526Z,4.50
2019-01-02T00:51:36.521Z,4.90
2019-01-02T00:52:36.503Z,4.50
2019-01-02T00:53:36.493Z,4.69
2019-01-02T00:54:36.483Z,4.90
2019-01-02T00:55:36.485Z,4.90
2019-01-02T00:56:36.459Z,5.00
2019-01-02T00:57:36.448Z,4.50
2019-01-02T00:58:36.436Z,4.90
2019-01-02T00:59:36.427Z,4.40
2019-01-02T01:00:36.416Z,4.59
2019-01-02T01:01:36.406Z,4.69
2019-01-02T01:02:36.395Z,4.80
2019-01-02T01:03:36.386Z,5.00
2019-01-02T01:04:36.372Z,4.90
2019-01-02T01:05:36.362Z,4.69
2019-01-02T01:06:36.351Z,5.00
2019-01-02T01:07:36.340Z,4.59
2019-01-02T01:08:36.329Z,4.40
2019-01-02T01:09:36.318Z,4.59
2019-01-02T01:10:36.308Z,4.40
2019-01-02T01:11:36.297Z,4.30
2019-01-02T01:12:36.286Z,4.59
2019-01-02T01:13:36.274Z,4.50
2019-01-02T01:14:36.262Z,4.59
2019-01-02T01:15:36.253Z,4.80
2019-01-02T01:16:36.243Z,4.50
2019-01-02T01:17:36.228Z,5.50
2019-01-02T01:18:36.220Z,4.30
2019-01-02T01:19:36.208Z,4.80
2019-01-02T01:20:36.198Z,4.59
2019-01-02T01:21:36.190Z,4.59
2019-01-02T01:22:36.175Z,4.80
2019-01-02T01:23:36.166Z,4.59
2019-01-02T01:24:36.157Z,4.59
2019-01-02T01:25:36.143Z,4.80
2019-01-02T01:26:36.132Z,4.59
2019-01-02T01:27:36.125Z,4.80
2019-01-02T01:28:36.110Z,4.59
2019-01-02T01:29:36.099Z,4.59
2019-01-02T01:30:36.090Z,4.30
2019-01-02T01:31:36.079Z,4.80
2019-01-02T01:32:36.072Z,4.80
2019-01-02T01:33:36.056Z,5.19
2019-01-02T01:34:36.045Z,4.50
2019-01-02T01:35:36.041Z,4.50
2019-01-02T01:36:36.025Z,5.00
2019-01-02T01:37:36.019Z,4.80
2019-01-02T01:38:36.005Z,4.80
2019-01-02T01:39:35.991Z,4.59
2019-01-02T01:40:35.984Z,5.09
2019-01-02T01:41:35.972Z,4.80
2019-01-02T01:42:35.958Z,4.90
2019-01-02T01:43:35.957Z,5.19
2019-01-02T01:44:35.937Z,5.00
2019-01-02T01:45:35.926Z,4.59
2019-01-02T01:46:35.917Z,4.90
2019-01-02T01:47:35.906Z,5.30
2019-01-02T01:48:35.894Z,4.90
2019-01-02T01:49:35.887Z,5.40
2019-01-02T01:50:35.872Z,4.69
2019-01-02T01:51:35.869Z,5.19
2019-01-02T01:52:35.854Z,4.50
2019-01-02T01:53:35.843Z,4.50
2019-01-02T01:54:35.834Z,4.69
2019-01-02T01:55:35.872Z,5.09
2019-01-02T01:56:35.807Z,4.90
2019-01-02T01:57:35.798Z,4.19
2019-01-02T01:58:35.785Z,4.80
2019-01-02T01:59:35.777Z,4.80
2019-01-02T02:00:35.765Z,4.80
2019-01-02T02:01:35.757Z,4.59
2019-01-02T02:02:35.745Z,4.59
2019-01-02T02:03:35.733Z,5.00
2019-01-02T02:04:35.725Z,5.00
2019-01-02T02:05:35.715Z,4.90
2019-01-02T02:06:35.701Z,4.80
2019-01-02T02:07:35.690Z,5.19
2019-01-02T02:08:35.697Z,4.50
2019-01-02T02:09:35.671Z,5.00
2019-01-02T02:10:35.660Z,5.40
2019-01-02T02:11:35.649Z,4.69
2019-01-02T02:12:35.637Z,5.09
2019-01-02T02:13:35.627Z,4.19
2019-01-02T02:14:35.616Z,5.00
2019-01-02T02:15:35.605Z,4.30
2019-01-02T02:16:35.596Z,4.69
2019-01-02T02:17:35.582Z,4.59
2019-01-02T02:18:35.573Z,4.59
2019-01-02T02:19:35.564Z,4.50
2019-01-02T02:20:35.551Z,4.50
2019-01-02T02:21:35.542Z,5.00
2019-01-02T02:22:35.532Z,4.59
2019-01-02T02:23:35.519Z,4.80
2019-01-02T02:24:35.511Z,5.19
2019-01-02T02:25:35.498Z,5.19
2019-01-02T02:26:35.488Z,4.69
2019-01-02T02:27:35.484Z,4.80
2019-01-02T02:28:35.466Z,4.69
2019-01-02T02:29:35.454Z,4.50
2019-01-02T02:30:35.445Z,5.19
2019-01-02T02:31:35.432Z,4.50
2019-01-02T02:32:35.422Z,4.59
2019-01-02T02:33:35.411Z,4.80
2019-01-02T02:34:35.402Z,5.19
2019-01-02T02:35:35.391Z,4.90
2019-01-02T02:36:35.436Z,5.09
2019-01-02T02:37:35.368Z,4.80
2019-01-02T02:38:35.358Z,4.30
2019-01-02T02:39:35.349Z,4.69
2019-01-02T02:40:35.337Z,4.50
2019-01-02T02:41:35.326Z,5.19
2019-01-02T02:42:35.314Z,4.90
2019-01-02T02:43:35.306Z,4.90
2019-01-02T02:44:35.293Z,4.69
2019-01-02T02:45:35.287Z,4.80
2019-01-02T02:46:35.272Z,4.59
2019-01-02T02:47:35.264Z,5.00
2019-01-02T02:48:35.263Z,4.59
2019-01-02T02:49:35.240Z,4.59
2019-01-02T02:50:35.229Z,5.40
2019-01-02T02:51:35.226Z,4.80
2019-01-02T02:52:35.209Z,5.00
2019-01-02T02:53:35.198Z,4.90
2019-01-02T02:54:35.188Z,4.30
2019-01-02T02:55:35.175Z,4.50
2019-01-02T02:56:35.166Z,4.69
2019-01-02T02:57:35.153Z,5.00
2019-01-02T02:58:35.145Z,5.00
2019-01-02T02:59:35.133Z,4.90
2019-01-02T03:00:35.123Z,4.90
2019-01-02T03:01:35.113Z,5.00
2019-01-02T03:02:35.102Z,4.80
2019-01-02T03:03:35.094Z,4.90
2019-01-02T03:04:35.082Z,5.00
2019-01-02T03:05:35.071Z,5.00
2019-01-02T03:06:35.061Z,5.00
2019-01-02T03:07:35.047Z,4.69
2019-01-02T03:08:35.039Z,5.09
2019-01-02T03:09:35.029Z,4.80
2019-01-02T03:10:35.015Z,4.59
2019-01-02T03:11:35.005Z,4.80
2019-01-02T03:12:34.995Z,4.69
2019-01-02T03:13:34.982Z,4.30
2019-01-02T03:14:34.973Z,4.69
2019-01-02T03:15:34.962Z,4.90
2019-01-02T03:16:34.955Z,4.80
2019-01-02T03:17:34.942Z,5.09
2019-01-02T03:18:34.933Z,4.30
2019-01-02T03:19:34.923Z,4.80
2019-01-02T03:20:34.906Z,4.69
2019-01-02T03:21:34.897Z,4.59
2019-01-02T03:22:34.887Z,4.40
2019-01-02T03:23:34.876Z,4.40
2019-01-02T03:24:34.868Z,4.50
2019-01-02T03:25:34.853Z,4.50
2019-01-02T03:26:34.842Z,5.00
2019-01-02T03:27:34.833Z,4.59
2019-01-02T03:28:34.821Z,4.90
2019-01-02T03:29:34.810Z,4.30
2019-01-02T03:30:34.806Z,5.00
2019-01-02T03:31:34.791Z,4.50
2019-01-02T03:32:34.780Z,4.80
2019-01-02T03:33:34.770Z,4.50
2019-01-02T03:34:34.757Z,4.40
2019-01-02T03:35:34.750Z,4.30
2019-01-02T03:36:34.738Z,4.69
2019-01-02T03:37:34.723Z,4.90
2019-01-02T03:38:34.714Z,4.69
2019-01-02T03:39:34.703Z,4.69
2019-01-02T03:40:34.742Z,4.30
2019-01-02T03:41:34.683Z,4.59
2019-01-02T03:42:34.672Z,4.50
2019-01-02T03:43:34.661Z,4.59
2019-01-02T03:44:34.653Z,4.69
2019-01-02T03:45:34.639Z,4.69
2019-01-02T03:46:34.631Z,4.40
2019-01-02T03:47:34.616Z,4.40
2019-01-02T03:48:34.612Z,4.80
2019-01-02T03:49:34.598Z,5.09
2019-01-02T03:50:34.586Z,4.59
2019-01-02T03:51:34.576Z,4.40
2019-01-02T03:52:34.563Z,4.59
2019-01-02T03:53:34.558Z,5.00
2019-01-02T03:54:34.544Z,4.69
2019-01-02T03:55:34.534Z,4.50
2019-01-02T03:56:34.524Z,4.80
2019-01-02T03:57:34.513Z,4.59
2019-01-02T03:58:34.499Z,5.40
2019-01-02T03:59:34.490Z,4.40
2019-01-02T04:00:34.481Z,4.80
2019-01-02T04:01:34.469Z,5.00
2019-01-02T04:02:34.459Z,4.59
2019-01-02T04:03:34.450Z,5.00
2019-01-02T04:04:34.442Z,4.69
2019-01-02T04:05:34.426Z,5.00
2019-01-02T04:06:34.418Z,5.19
2019-01-02T04:07:34.412Z,4.50
2019-01-02T04:08:34.393Z,4.50
2019-01-02T04:09:34.383Z,4.69
2019-01-02T04:10:34.372Z,4.69
2019-01-02T04:11:34.362Z,5.09
2019-01-02T04:12:34.350Z,4.80
2019-01-02T04:13:34.348Z,4.30
2019-01-02T04:14:34.329Z,4.59
2019-01-02T04:15:34.325Z,4.80
2019-01-02T04:16:34.308Z,4.40
2019-01-02T04:17:34.296Z,4.80
2019-01-02T04:18:34.294Z,4.90
2019-01-02T04:19:34.278Z,4.69
2019-01-02T04:20:34.267Z,5.00
2019-01-02T04:21:34.286Z,5.00
2019-01-02T04:22:34.244Z,5.00
2019-01-02T04:23:34.235Z,4.19
2019-01-02T04:24:34.227Z,4.90
2019-01-02T04:25:34.213Z,4.50
2019-01-02T04:26:34.201Z,5.00
2019-01-02T04:27:34.190Z,4.50
2019-01-02T04:28:34.187Z,4.59
2019-01-02T04:29:34.171Z,4.50
2019-01-02T04:30:34.160Z,4.59
2019-01-02T04:31:34.149Z,4.59
2019-01-02T04:32:34.140Z,4.80
2019-01-02T04:33:34.134Z,5.09
2019-01-02T04:34:34.123Z,4.59
2019-01-02T04:35:34.109Z,4.90
2019-01-02T04:36:34.104Z,4.90
2019-01-02T04:37:34.088Z,5.00
2019-01-02T04:38:34.075Z,4.69
2019-01-02T04:39:34.068Z,4.90
2019-01-02T04:40:34.061Z,5.00
2019-01-02T04:41:34.043Z,4.90
2019-01-02T04:42:34.033Z,5.00
2019-01-02T04:43:34.032Z,5.09
2019-01-02T04:44:34.013Z,4.80
2019-01-02T04:45:34.000Z,4.69
2019-01-02T04:46:33.991Z,4.80
2019-01-02T04:47:33.980Z,5.19
2019-01-02T04:48:33.970Z,4.80
2019-01-02T04:49:33.965Z,4.59
2019-01-02T04:50:33.948Z,5.30
2019-01-02T04:51:33.938Z,5.69
2019-01-02T04:52:33.927Z,4.90
2019-01-02T04:53:33.918Z,4.80
2019-01-02T04:54:33.909Z,5.50
2019-01-02T04:55:33.897Z,4.90
2019-01-02T04:56:33.884Z,4.80
2019-01-02T04:57:33.875Z,5.19
2019-01-02T04:58:33.863Z,5.40
2019-01-02T04:59:33.852Z,5.09
2019-01-02T05:00:33.846Z,4.90
2019-01-02T05:01:33.832Z,5.19
2019-01-02T05:02:33.822Z,5.09
2019-01-02T05:03:33.810Z,4.50
2019-01-02T05:04:33.800Z,5.69
2019-01-02T05:05:33.789Z,5.40
2019-01-02T05:06:33.783Z,5.50
2019-01-02T05:07:33.767Z,5.19
2019-01-02T05:08:33.758Z,4.90
2019-01-02T05:09:33.760Z,5.59
2019-01-02T05:10:33.733Z,5.30
2019-01-02T05:11:33.724Z,5.00
2019-01-02T05:12:33.712Z,4.80
2019-01-02T05:13:33.703Z,5.09
2019-01-02T05:14:33.692Z,5.09
2019-01-02T05:15:33.681Z,4.80
2019-01-02T05:16:33.670Z,5.30
2019-01-02T05:17:33.658Z,5.69
2019-01-02T05:18:33.650Z,5.00
2019-01-02T05:19:33.637Z,5.09
2019-01-02T05:20:33.627Z,5.69
2019-01-02T05:21:33.615Z,5.30
2019-01-02T05:22:33.607Z,5.00
2019-01-02T05:23:33.594Z,5.59
2019-01-02T05:24:33.582Z,5.09
2019-01-02T05:25:33.570Z,4.80
2019-01-02T05:26:33.561Z,5.09
2019-01-02T05:27:33.550Z,4.80
2019-01-02T05:28:33.544Z,5.00
2019-01-02T05:29:33.529Z,5.19
2019-01-02T05:30:33.520Z,5.09
2019-01-02T05:31:33.509Z,5.19
2019-01-02T05:32:33.497Z,5.69
2019-01-02T05:33:33.487Z,5.09
2019-01-02T05:34:33.475Z,5.59
2019-01-02T05:35:33.465Z,5.09
2019-01-02T05:36:33.454Z,4.80
2019-01-02T05:37:33.443Z,5.00
2019-01-02T05:38:33.430Z,5.19
2019-01-02T05:39:33.422Z,5.30
2019-01-02T05:40:33.410Z,5.40
2019-01-02T05:41:33.399Z,5.40
2019-01-02T05:42:33.415Z,4.80
2019-01-02T05:43:33.378Z,4.90
2019-01-02T05:44:33.367Z,5.09
2019-01-02T05:45:33.356Z,4.90
2019-01-02T05:46:33.344Z,5.09
2019-01-02T05:47:33.333Z,5.30
2019-01-02T05:48:33.325Z,4.90
2019-01-02T05:49:33.315Z,5.00
2019-01-02T05:50:33.302Z,5.40
2019-01-02T05:51:33.293Z,5.09
2019-01-02T05:52:33.282Z,5.50
2019-01-02T05:53:33.271Z,5.09
2019-01-02T05:54:33.261Z,5.59
2019-01-02T05:55:33.250Z,5.40
2019-01-02T05:56:33.239Z,5.90
2019-01-02T05:57:33.227Z,5.00
2019-01-02T05:58:33.217Z,5.40
2019-01-02T05:59:33.205Z,5.09
2019-01-02T06:00:33.193Z,5.30
2019-01-02T06:01:33.189Z,5.19
2019-01-02T06:02:33.173Z,5.59
2019-01-02T06:03:33.163Z,4.90
2019-01-02T06:04:33.151Z,5.30
2019-01-02T06:05:33.143Z,5.30
2019-01-02T06:06:33.131Z,5.40
2019-01-02T06:07:33.121Z,5.59
2019-01-02T06:08:33.111Z,5.59
2019-01-02T06:09:33.098Z,5.40
2019-01-02T06:10:33.087Z,5.19
2019-01-02T06:11:33.076Z,5.40
2019-01-02T06:12:33.066Z,5.50
2019-01-02T06:13:33.055Z,5.40
2019-01-02T06:14:33.043Z,5.59
2019-01-02T06:15:33.032Z,5.59
2019-01-02T06:16:33.022Z,5.40
2019-01-02T06:17:33.017Z,5.50
2019-01-02T06:18:33.001Z,5.40
2019-01-02T06:19:32.989Z,5.40
2019-01-02T06:20:32.980Z,5.50
2019-01-02T06:21:32.975Z,5.30
2019-01-02T06:22:32.958Z,5.50
2019-01-02T06:23:32.944Z,5.69
2019-01-02T06:24:32.936Z,5.30
2019-01-02T06:25:32.923Z,5.40
2019-01-02T06:26:32.912Z,4.90
2019-01-02T06:27:32.901Z,4.90
2019-01-02T06:28:32.892Z,5.40
2019-01-02T06:29:32.882Z,5.69
2019-01-02T06:30:32.870Z,5.30
2019-01-02T06:31:32.860Z,5.00
2019-01-02T06:32:32.849Z,5.50
2019-01-02T06:33:32.838Z,5.59
2019-01-02T06:34:32.827Z,5.80
2019-01-02T06:35:32.817Z,5.40
2019-01-02T06:36:32.806Z,5.69
2019-01-02T06:37:32.795Z,5.30
2019-01-02T06:38:32.789Z,5.09
2019-01-02T06:39:32.822Z,5.59
2019-01-02T06:40:32.764Z,5.40
2019-01-02T06:41:32.752Z,5.30
2019-01-02T06:42:32.745Z,5.30
2019-01-02T06:43:32.730Z,4.90
2019-01-02T06:44:32.722Z,4.80
2019-01-02T06:45:32.714Z,5.09
2019-01-02T06:46:32.701Z,5.69
2019-01-02T06:47:32.687Z,5.00
2019-01-02T06:48:32.678Z,5.30
2019-01-02T06:49:32.666Z,5.19
2019-01-02T06:50:32.655Z,5.50
2019-01-02T06:51:32.645Z,5.30
2019-01-02T06:52:32.635Z,5.40
2019-01-02T06:53:32.624Z,6.00
2019-01-02T06:54:32.613Z,6.09
2019-01-02T06:55:32.603Z,5.40
2019-01-02T06:56:32.592Z,5.40
2019-01-02T06:57:32.580Z,5.69
2019-01-02T06:58:32.568Z,5.50
2019-01-02T06:59:32.559Z,6.00
2019-01-02T07:00:32.554Z,6.09
2019-01-02T07:01:32.542Z,5.69
2019-01-02T07:02:32.527Z,5.30
2019-01-02T07:03:32.516Z,5.69
2019-01-02T07:04:32.507Z,5.30
2019-01-02T07:05:32.494Z,5.40
2019-01-02T07:06:32.487Z,5.80
2019-01-02T07:07:32.474Z,5.80
2019-01-02T07:08:32.461Z,5.30
2019-01-02T07:09:32.452Z,5.30
2019-01-02T07:10:32.441Z,5.90
2019-01-02T07:11:32.429Z,5.80
2019-01-02T07:12:32.419Z,5.50
2019-01-02T07:13:32.407Z,5.00
2019-01-02T07:14:32.398Z,5.69
2019-01-02T07:15:32.387Z,5.80
2019-01-02T07:16:32.378Z,5.59
2019-01-02T07:17:32.366Z,6.00
2019-01-02T07:18:32.355Z,6.09
2019-01-02T07:19:32.344Z,5.40
2019-01-02T07:20:32.333Z,5.69
2019-01-02T07:21:32.320Z,5.40
2019-01-02T07:22:32.312Z,5.59
2019-01-02T07:23:32.302Z,5.80
2019-01-02T07:24:32.288Z,5.80
2019-01-02T07:25:32.279Z,6.30
2019-01-02T07:26:32.269Z,6.19
2019-01-02T07:27:32.256Z,6.40
2019-01-02T07:28:32.246Z,6.19
2019-01-02T07:29:32.235Z,6.90
2019-01-02T07:30:32.224Z,6.80
2019-01-02T07:31:32.214Z,7.19
2019-01-02T07:32:32.202Z,6.80
2019-01-02T07:33:32.191Z,7.00
2019-01-02T07:34:32.181Z,6.30
2019-01-02T07:35:32.170Z,6.09
2019-01-02T07:36:32.158Z,5.90
2019-01-02T07:37:32.232Z,6.09
2019-01-02T07:38:32.248Z,5.90
2019-01-02T07:39:32.126Z,6.19
2019-01-02T07:40:32.118Z,6.09
2019-01-02T07:41:32.107Z,6.30
2019-01-02T07:42:32.094Z,5.69
2019-01-02T07:43:32.083Z,5.69
2019-01-02T07:44:32.074Z,5.80
2019-01-02T07:45:32.062Z,6.50
2019-01-02T07:46:32.052Z,5.30
2019-01-02T07:47:32.040Z,6.19
2019-01-02T07:48:32.031Z,5.80
2019-01-02T07:49:32.017Z,6.19
2019-01-02T07:50:32.010Z,6.30
2019-01-02T07:51:31.996Z,6.00
2019-01-02T07:52:31.986Z,5.90
2019-01-02T07:53:31.974Z,6.09
2019-01-02T07:54:31.972Z,7.40
2019-01-02T07:55:31.958Z,7.50
2019-01-02T07:56:31.941Z,6.90
2019-01-02T07:57:31.932Z,6.90
2019-01-02T07:58:31.925Z,6.50
2019-01-02T07:59:31.909Z,5.90
2019-01-02T08:00:31.898Z,6.69
2019-01-02T08:01:31.887Z,6.50
2019-01-02T08:02:31.877Z,6.50
2019-01-02T08:03:31.868Z,6.30
2019-01-02T08:04:31.854Z,5.80
2019-01-02T08:05:31.849Z,6.19
2019-01-02T08:06:31.835Z,5.80
2019-01-02T08:07:31.822Z,5.19
2019-01-02T08:08:31.811Z,5.90
2019-01-02T08:09:31.799Z,6.19
2019-01-02T08:10:31.791Z,5.59
2019-01-02T08:11:31.780Z,6.09
2019-01-02T08:12:31.769Z,6.09
2019-01-02T08:13:31.758Z,5.59
2019-01-02T08:14:31.745Z,6.19
2019-01-02T08:15:31.736Z,5.59
2019-01-02T08:16:31.722Z,6.00
2019-01-02T08:17:31.712Z,5.90
2019-01-02T08:18:31.703Z,5.69
2019-01-02T08:19:31.691Z,6.09
2019-01-02T08:20:31.680Z,5.80
2019-01-02T08:21:31.669Z,5.80
2019-01-02T08:22:31.665Z,6.00
2019-01-02T08:23:31.649Z,5.50
2019-01-02T08:24:31.638Z,5.50
2019-01-02T08:25:31.628Z,5.00
2019-01-02T08:26:31.616Z,5.40
2019-01-02T08:27:31.634Z,5.19
2019-01-02T08:28:31.594Z,5.19
2019-01-02T08:29:31.583Z,5.50
2019-01-02T08:30:31.575Z,5.80
2019-01-02T08:31:31.561Z,5.30
2019-01-02T08:32:31.552Z,6.09
2019-01-02T08:33:31.543Z,6.30
2019-01-02T08:34:31.528Z,5.69
2019-01-02T08:35:31.518Z,5.40
2019-01-02T08:36:31.510Z,6.09
2019-01-02T08:37:31.497Z,6.00
2019-01-02T08:38:31.491Z,6.80
2019-01-02T08:39:31.475Z,5.80
2019-01-02T08:40:31.463Z,5.50
2019-01-02T08:41:31.452Z,6.50
2019-01-02T08:42:31.443Z,6.09
2019-01-02T08:43:31.437Z,5.50
2019-01-02T08:44:32.706Z,6.30
2019-01-02T08:45:31.412Z,6.30
2019-01-02T08:46:31.400Z,6.00
2019-01-02T08:47:31.388Z,6.40
2019-01-02T08:48:31.378Z,6.19
2019-01-02T08:49:31.366Z,6.19
2019-01-02T08:50:31.357Z,6.09
2019-01-02T08:51:31.344Z,6.30
2019-01-02T08:52:31.335Z,6.40
2019-01-02T08:53:31.322Z,7.00
2019-01-02T08:54:31.310Z,6.09
2019-01-02T08:55:31.301Z,6.50
2019-01-02T08:56:31.287Z,6.80
2019-01-02T08:57:31.278Z,6.90
2019-01-02T08:58:32.496Z,6.59
2019-01-02T08:59:31.257Z,6.90
2019-01-02T09:00:31.245Z,6.50
2019-01-02T09:01:31.234Z,6.59
2019-01-02T09:02:31.223Z,6.50
2019-01-02T09:03:31.215Z,6.50
2019-01-02T09:04:31.203Z,6.40
2019-01-02T09:05:31.194Z,6.90
2019-01-02T09:06:31.182Z,6.19
2019-01-02T09:07:31.168Z,6.80
2019-01-02T09:08:31.159Z,6.90
2019-01-02T09:09:31.149Z,7.00
2019-01-02T09:10:31.137Z,6.30
2019-01-02T09:11:31.126Z,6.59
2019-01-02T09:12:31.116Z,6.50
2019-01-02T09:13:31.105Z,6.30
2019-01-02T09:14:31.093Z,6.59
2019-01-02T09:15:31.084Z,6.69
2019-01-02T09:16:31.072Z,6.30
2019-01-02T09:17:31.061Z,6.59
2019-01-02T09:18:31.051Z,6.40
2019-01-02T09:19:31.039Z,6.30
2019-01-02T09:20:31.028Z,6.50
2019-01-02T09:21:31.019Z,6.09
2019-01-02T09:22:31.007Z,6.30
2019-01-02T09:23:30.999Z,6.09
2019-01-02T09:24:30.986Z,6.80
2019-01-02T09:25:30.973Z,6.40
2019-01-02T09:26:30.964Z,6.69
2019-01-02T09:27:30.953Z,6.59
2019-01-02T09:28:30.944Z,6.50
2019-01-02T09:29:30.930Z,6.69
2019-01-02T09:30:30.923Z,5.90
2019-01-02T09:31:30.910Z,6.59
2019-01-02T09:32:30.897Z,6.00
2019-01-02T09:33:30.888Z,6.40
2019-01-02T09:34:30.875Z,6.40
2019-01-02T09:35:30.880Z,6.30
2019-01-02T09:36:30.853Z,6.40
2019-01-02T09:37:30.843Z,6.40
2019-01-02T09:38:30.832Z,6.19
2019-01-02T09:39:30.822Z,6.30
2019-01-02T09:40:30.839Z,6.09
2019-01-02T09:41:30.800Z,6.19
2019-01-02T09:42:30.790Z,6.30
2019-01-02T09:43:30.776Z,6.19
2019-01-02T09:44:30.766Z,5.90
2019-01-02T09:45:30.759Z,5.90
2019-01-02T09:46:30.776Z,5.80
2019-01-02T09:47:30.865Z,6.09
2019-01-02T09:48:30.722Z,5.69
2019-01-02T09:49:30.713Z,5.19
2019-01-02T09:50:30.702Z,6.00
2019-01-02T09:51:30.691Z,5.30
2019-01-02T09:52:30.678Z,6.00
2019-01-02T09:53:30.667Z,5.59
2019-01-02T09:54:30.659Z,5.50
2019-01-02T09:55:30.646Z,5.69
2019-01-02T09:56:30.633Z,5.69
2019-01-02T09:57:30.622Z,5.19
2019-01-02T09:58:30.613Z,5.69
2019-01-02T09:59:30.603Z,5.50
2019-01-02T10:00:30.592Z,5.59
2019-01-02T10:01:30.578Z,5.19
2019-01-02T10:02:30.571Z,5.59
2019-01-02T10:03:30.560Z,5.00
2019-01-02T10:04:30.547Z,5.30
2019-01-02T10:05:30.536Z,5.30
2019-01-02T10:06:30.526Z,5.19
2019-01-02T10:07:30.518Z,5.69
2019-01-02T10:08:30.507Z,5.19
2019-01-02T10:09:30.494Z,5.19
2019-01-02T10:10:30.484Z,5.30
2019-01-02T10:11:30.473Z,5.90
2019-01-02T10:12:30.460Z,5.50
2019-01-02T10:13:30.452Z,5.69
2019-01-02T10:14:30.441Z,6.00
2019-01-02T10:15:30.429Z,4.69
2019-01-02T10:16:30.417Z,5.30
2019-01-02T10:17:30.406Z,5.30
2019-01-02T10:18:30.395Z,5.59
2019-01-02T10:19:30.386Z,5.40
2019-01-02T10:20:30.373Z,5.00
2019-01-02T10:21:30.362Z,5.30
2019-01-02T10:22:30.355Z,4.69
2019-01-02T10:23:30.341Z,5.09
2019-01-02T10:24:30.329Z,4.69
2019-01-02T10:25:30.321Z,4.80
2019-01-02T10:26:30.309Z,4.90
2019-01-02T10:27:30.295Z,5.00
2019-01-02T10:28:30.286Z,5.40
2019-01-02T10:29:30.276Z,4.69
2019-01-02T10:30:30.265Z,5.09
2019-01-02T10:31:30.256Z,4.80
2019-01-02T10:32:30.245Z,5.40
2019-01-02T10:33:30.233Z,4.80
2019-01-02T10:34:30.220Z,4.80
2019-01-02T10:35:30.210Z,5.50
2019-01-02T10:36:30.200Z,5.09
2019-01-02T10:37:30.191Z,4.90
2019-01-02T10:38:30.176Z,5.00
2019-01-02T10:39:30.164Z,5.00
2019-01-02T10:40:30.156Z,5.09
2019-01-02T10:41:30.145Z,5.00
2019-01-02T10:42:30.136Z,4.90
2019-01-02T10:43:30.129Z,4.90
2019-01-02T10:44:30.113Z,5.00
2019-01-02T10:45:30.105Z,5.30
2019-01-02T10:46:30.088Z,5.59
2019-01-02T10:47:30.078Z,5.40
2019-01-02T10:48:30.070Z,4.90
2019-01-02T10:49:30.061Z,5.09
2019-01-02T10:50:30.049Z,5.00
2019-01-02T10:51:30.035Z,5.59
2019-01-02T10:52:30.024Z,5.09
2019-01-02T10:53:30.016Z,5.19
2019-01-02T10:54:30.003Z,5.09
2019-01-02T10:55:29.993Z,5.30
2019-01-02T10:56:29.980Z,5.09
2019-01-02T10:57:29.971Z,5.00
2019-01-02T10:58:36.434Z,5.30
2019-01-02T10:59:30.967Z,5.19
2019-01-02T11:00:29.938Z,5.30
2019-01-02T11:01:29.928Z,5.00
2019-01-02T11:02:29.914Z,4.90
2019-01-02T11:03:29.905Z,5.09
2019-01-02T11:04:29.894Z,5.19
2019-01-02T11:05:29.887Z,5.19
2019-01-02T11:06:31.179Z,5.30
2019-01-02T11:07:29.863Z,4.90
2019-01-02T11:08:29.852Z,5.40
2019-01-02T11:09:29.839Z,5.09
2019-01-02T11:10:29.830Z,5.00
2019-01-02T11:11:29.822Z,4.80
2019-01-02T11:12:29.809Z,5.09
2019-01-02T11:13:29.796Z,5.09
2019-01-02T11:14:29.786Z,4.90
2019-01-02T11:15:29.779Z,5.00
2019-01-02T11:16:29.762Z,5.00
2019-01-02T11:17:29.751Z,5.69
2019-01-02T11:18:29.741Z,5.09
2019-01-02T11:19:29.728Z,5.59
2019-01-02T11:20:29.718Z,4.69
2019-01-02T11:21:29.710Z,5.19
2019-01-02T11:22:29.700Z,4.90
2019-01-02T11:23:29.692Z,5.00
2019-01-02T11:24:29.675Z,5.19
2019-01-02T11:25:29.666Z,5.50
2019-01-02T11:26:29.661Z,5.30
2019-01-02T11:27:29.644Z,5.09
2019-01-02T11:28:29.635Z,4.90
2019-01-02T11:29:29.621Z,5.09
2019-01-02T11:30:29.611Z,4.50
2019-01-02T11:31:29.601Z,5.00
2019-01-02T11:32:29.591Z,5.19
2019-01-02T11:33:29.581Z,5.00
2019-01-02T11:34:29.567Z,4.69
2019-01-02T11:35:29.562Z,5.40
2019-01-02T11:36:29.545Z,5.09
2019-01-02T11:37:29.544Z,5.19
2019-01-02T11:38:29.523Z,5.19
2019-01-02T11:39:29.511Z,4.69
2019-01-02T11:40:29.503Z,4.90
2019-01-02T11:41:29.491Z,4.80
2019-01-02T11:42:29.481Z,4.30
2019-01-02T11:43:29.475Z,4.50
2019-01-02T11:44:29.462Z,3.90
2019-01-02T11:45:29.448Z,4.59
2019-01-02T11:46:29.436Z,4.90
2019-01-02T11:47:29.423Z,4.30
2019-01-02T11:48:29.415Z,4.30
2019-01-02T11:49:29.412Z,4.09
2019-01-02T11:50:29.395Z,4.50
2019-01-02T11:51:29.382Z,4.59
2019-01-02T11:52:29.370Z,4.69
2019-01-02T11:53:29.361Z,4.19
2019-01-02T11:54:29.348Z,5.50
2019-01-02T11:55:29.336Z,10.00
2019-01-02T11:56:29.330Z,8.69
2019-01-02T11:57:29.322Z,15.00
2019-01-02T11:58:29.307Z,9.60
2019-01-02T11:59:29.297Z,4.69
2019-01-02T12:00:29.284Z,3.40
2019-01-02T12:01:29.278Z,3.59
2019-01-02T12:02:34.234Z,3.70
2019-01-02T12:03:29.255Z,4.09
2019-01-02T12:04:29.241Z,3.79
2019-01-02T12:05:29.230Z,4.30
2019-01-02T12:06:29.218Z,3.70
2019-01-02T12:07:29.205Z,4.00
2019-01-02T12:08:29.198Z,3.09
2019-01-02T12:09:29.186Z,3.79
2019-01-02T12:10:29.174Z,3.59
2019-01-02T12:11:29.165Z,3.79
2019-01-02T12:12:29.153Z,3.59
2019-01-02T12:13:29.140Z,3.90
2019-01-02T12:14:29.130Z,4.09
2019-01-02T12:15:29.118Z,3.59
2019-01-02T12:16:29.108Z,3.90
2019-01-02T12:17:29.100Z,4.19
2019-01-02T12:18:29.087Z,3.70
2019-01-02T12:19:29.076Z,4.09
2019-01-02T12:20:29.065Z,3.79
2019-01-02T12:21:29.055Z,4.19
2019-01-02T12:22:29.044Z,4.09
2019-01-02T12:23:29.034Z,3.79
2019-01-02T12:24:29.021Z,4.00
2019-01-02T12:25:29.011Z,2.40
2019-01-02T12:26:29.001Z,3.40
2019-01-02T12:27:28.987Z,3.50
2019-01-02T12:28:28.978Z,3.70
2019-01-02T12:29:28.964Z,3.79
2019-01-02T12:30:28.958Z,3.70
2019-01-02T12:31:28.945Z,3.20
2019-01-02T12:32:28.933Z,3.29
2019-01-02T12:33:28.923Z,3.59
2019-01-02T12:34:28.911Z,3.59
2019-01-02T12:35:28.899Z,3.29
2019-01-02T12:36:28.888Z,3.50
2019-01-02T12:37:28.879Z,3.29
2019-01-02T12:38:28.871Z,3.29
2019-01-02T12:39:28.857Z,3.40
2019-01-02T12:40:28.847Z,3.79
2019-01-02T12:41:28.838Z,3.40
2019-01-02T12:42:28.830Z,3.70
2019-01-02T12:43:28.814Z,3.29
2019-01-02T12:44:28.804Z,3.79
2019-01-02T12:45:28.796Z,3.29
2019-01-02T12:46:28.780Z,3.50
2019-01-02T12:47:28.767Z,3.29
2019-01-02T12:48:28.758Z,3.50
2019-01-02T12:49:28.754Z,3.29
2019-01-02T12:50:28.735Z,3.09
2019-01-02T12:51:28.727Z,3.40
2019-01-02T12:52:28.714Z,3.00
2019-01-02T12:53:28.707Z,3.29
2019-01-02T12:54:28.692Z,3.59
2019-01-02T12:55:28.685Z,3.09
2019-01-02T12:56:28.672Z,2.79
2019-01-02T12:57:28.661Z,3.40
2019-01-02T12:58:28.650Z,3.09
2019-01-02T12:59:28.639Z,3.70
2019-01-02T13:00:28.627Z,3.20
2019-01-02T13:01:28.615Z,3.59
2019-01-02T13:02:28.604Z,3.70
2019-01-02T13:03:28.594Z,3.50
2019-01-02T13:04:28.583Z,3.50
2019-01-02T13:05:28.572Z,4.00
2019-01-02T13:06:28.563Z,4.00
2019-01-02T13:07:28.552Z,3.79
2019-01-02T13:08:28.541Z,4.00
2019-01-02T13:09:28.531Z,4.09
2019-01-02T13:10:28.516Z,3.50
2019-01-02T13:11:28.507Z,3.40
2019-01-02T13:12:28.497Z,3.09
2019-01-02T13:13:28.485Z,3.09
2019-01-02T13:14:28.473Z,3.50
2019-01-02T13:15:28.467Z,3.29
2019-01-02T13:16:28.454Z,3.79
2019-01-02T13:17:28.442Z,3.20
2019-01-02T13:18:28.430Z,2.90